sensor_id;sensor_type;location;lat;lon;timestamp;temperature;humidity
23669;DHT22;12011;47.422;15.018;2023-04-03T00:02:11;3.60;93.90
23669;DHT22;12011;47.422;15.018;2023-04-03T00:04:43;3.60;90.00
23669;DHT22;12011;47.422;15.018;2023-04-03T00:07:17;3.60;92.30
23669;DHT22;12011;47.422;15.018;2023-04-03T00:09:51;3.50;91.70
23669;DHT22;12011;47.422;15.018;2023-04-03T00:12:29;3.50;90.70
23669;DHT22;12011;47.422;15.018;2023-04-03T00:15:09;3.50;90.60
23669;DHT22;12011;47.422;15.018;2023-04-03T00:17:42;3.50;88.20
23669;DHT22;12011;47.422;15.018;2023-04-03T00:20:17;3.40;91.30
23669;DHT22;12011;47.422;15.018;2023-04-03T00:22:49;3.50;86.30
23669;DHT22;12011;47.422;15.018;2023-04-03T00:25:23;3.40;90.90
23669;DHT22;12011;47.422;15.018;2023-04-03T00:27:54;3.40;91.30
23669;DHT22;12011;47.422;15.018;2023-04-03T00:30:34;3.30;92.90
23669;DHT22;12011;47.422;15.018;2023-04-03T00:33:08;3.40;90.10
23669;DHT22;12011;47.422;15.018;2023-04-03T00:35:53;3.40;90.60
23669;DHT22;12011;47.422;15.018;2023-04-03T00:38:25;3.40;90.20
23669;DHT22;12011;47.422;15.018;2023-04-03T00:40:56;3.30;90.10
23669;DHT22;12011;47.422;15.018;2023-04-03T00:43:28;3.30;88.00
23669;DHT22;12011;47.422;15.018;2023-04-03T00:46:00;3.40;87.70
23669;DHT22;12011;47.422;15.018;2023-04-03T00:48:46;3.40;88.30
23669;DHT22;12011;47.422;15.018;2023-04-03T00:51:24;3.50;85.60
23669;DHT22;12011;47.422;15.018;2023-04-03T00:54:02;3.40;90.20
23669;DHT22;12011;47.422;15.018;2023-04-03T00:56:38;3.40;86.80
23669;DHT22;12011;47.422;15.018;2023-04-03T00:59:15;3.40;88.90
23669;DHT22;12011;47.422;15.018;2023-04-03T01:02:00;3.40;87.70
23669;DHT22;12011;47.422;15.018;2023-04-03T01:04:43;3.30;88.30
23669;DHT22;12011;47.422;15.018;2023-04-03T01:07:26;3.20;89.00
23669;DHT22;12011;47.422;15.018;2023-04-03T01:10:10;3.20;88.30
23669;DHT22;12011;47.422;15.018;2023-04-03T01:12:53;3.20;81.50
23669;DHT22;12011;47.422;15.018;2023-04-03T01:15:28;3.20;85.20
23669;DHT22;12011;47.422;15.018;2023-04-03T01:18:10;3.20;82.30
23669;DHT22;12011;47.422;15.018;2023-04-03T01:24:33;3.10;87.20
23669;DHT22;12011;47.422;15.018;2023-04-03T01:27:12;3.10;84.60
23669;DHT22;12011;47.422;15.018;2023-04-03T01:29:53;3.10;82.40
23669;DHT22;12011;47.422;15.018;2023-04-03T01:32:33;3.10;83.90
23669;DHT22;12011;47.422;15.018;2023-04-03T01:35:12;3.10;80.00
23669;DHT22;12011;47.422;15.018;2023-04-03T01:37:49;3.10;75.80
23669;DHT22;12011;47.422;15.018;2023-04-03T01:40:30;3.00;83.00
23669;DHT22;12011;47.422;15.018;2023-04-03T01:43:01;3.00;79.10
23669;DHT22;12011;47.422;15.018;2023-04-03T01:45:39;3.00;76.10
23669;DHT22;12011;47.422;15.018;2023-04-03T01:48:20;3.00;80.30
23669;DHT22;12011;47.422;15.018;2023-04-03T01:51:00;2.90;82.60
23669;DHT22;12011;47.422;15.018;2023-04-03T01:53:36;2.90;83.50
23669;DHT22;12011;47.422;15.018;2023-04-03T01:56:33;2.90;81.80
23669;DHT22;12011;47.422;15.018;2023-04-03T01:59:04;2.80;81.60
23669;DHT22;12011;47.422;15.018;2023-04-03T02:01:41;2.80;85.10
23669;DHT22;12011;47.422;15.018;2023-04-03T02:04:19;2.70;85.60
23669;DHT22;12011;47.422;15.018;2023-04-03T02:06:54;2.70;79.60
23669;DHT22;12011;47.422;15.018;2023-04-03T02:09:28;2.70;80.80
23669;DHT22;12011;47.422;15.018;2023-04-03T02:12:03;2.70;83.80
23669;DHT22;12011;47.422;15.018;2023-04-03T02:14:38;2.70;83.20
23669;DHT22;12011;47.422;15.018;2023-04-03T02:17:13;2.80;76.20
23669;DHT22;12011;47.422;15.018;2023-04-03T02:20:03;2.80;79.00
23669;DHT22;12011;47.422;15.018;2023-04-03T02:22:37;2.80;77.50
23669;DHT22;12011;47.422;15.018;2023-04-03T02:25:15;2.80;72.50
23669;DHT22;12011;47.422;15.018;2023-04-03T02:27:50;2.80;77.00
23669;DHT22;12011;47.422;15.018;2023-04-03T02:30:24;2.80;79.70
23669;DHT22;12011;47.422;15.018;2023-04-03T02:32:54;2.80;80.60
23669;DHT22;12011;47.422;15.018;2023-04-03T02:35:32;2.80;77.30
23669;DHT22;12011;47.422;15.018;2023-04-03T02:38:06;2.70;80.00
23669;DHT22;12011;47.422;15.018;2023-04-03T02:40:40;2.70;77.30
23669;DHT22;12011;47.422;15.018;2023-04-03T02:43:17;2.70;77.00
23669;DHT22;12011;47.422;15.018;2023-04-03T02:45:52;2.60;81.10
23669;DHT22;12011;47.422;15.018;2023-04-03T02:48:24;2.60;81.20
23669;DHT22;12011;47.422;15.018;2023-04-03T02:50:59;2.00;81.50
23669;DHT22;12011;47.422;15.018;2023-04-03T02:53:42;2.60;76.20
23669;DHT22;12011;47.422;15.018;2023-04-03T02:56:21;2.60;75.60
23669;DHT22;12011;47.422;15.018;2023-04-03T02:58:56;2.70;75.50
23669;DHT22;12011;47.422;15.018;2023-04-03T03:01:28;2.60;81.40
23669;DHT22;12011;47.422;15.018;2023-04-03T03:04:00;2.60;79.00
23669;DHT22;12011;47.422;15.018;2023-04-03T03:06:37;2.60;77.90
23669;DHT22;12011;47.422;15.018;2023-04-03T03:09:13;2.60;76.90
23669;DHT22;12011;47.422;15.018;2023-04-03T03:11:46;2.60;73.70
23669;DHT22;12011;47.422;15.018;2023-04-03T03:14:25;2.30;74.00
23669;DHT22;12011;47.422;15.018;2023-04-03T03:16:59;2.60;75.10
23669;DHT22;12011;47.422;15.018;2023-04-03T03:19:33;2.50;76.80
23669;DHT22;12011;47.422;15.018;2023-04-03T03:22:09;2.50;76.30
23669;DHT22;12011;47.422;15.018;2023-04-03T03:24:42;2.40;76.50
23669;DHT22;12011;47.422;15.018;2023-04-03T03:27:14;2.40;76.60
23669;DHT22;12011;47.422;15.018;2023-04-03T03:29:45;2.40;79.60
23669;DHT22;12011;47.422;15.018;2023-04-03T03:32:16;2.20;74.70
23669;DHT22;12011;47.422;15.018;2023-04-03T03:34:49;2.30;76.20
23669;DHT22;12011;47.422;15.018;2023-04-03T03:37:25;2.40;75.60
23669;DHT22;12011;47.422;15.018;2023-04-03T03:40:06;2.30;78.10
23669;DHT22;12011;47.422;15.018;2023-04-03T03:42:59;2.30;79.20
23669;DHT22;12011;47.422;15.018;2023-04-03T03:45:33;2.30;74.60
23669;DHT22;12011;47.422;15.018;2023-04-03T03:48:08;2.30;73.70
23669;DHT22;12011;47.422;15.018;2023-04-03T03:50:39;2.30;75.20
23669;DHT22;12011;47.422;15.018;2023-04-03T03:53:14;2.40;72.90
23669;DHT22;12011;47.422;15.018;2023-04-03T03:55:50;2.40;71.30
23669;DHT22;12011;47.422;15.018;2023-04-03T03:58:29;2.30;69.70
23669;DHT22;12011;47.422;15.018;2023-04-03T04:01:00;2.40;68.70
23669;DHT22;12011;47.422;15.018;2023-04-03T04:03:45;2.40;70.70
23669;DHT22;12011;47.422;15.018;2023-04-03T04:06:20;2.30;71.30
23669;DHT22;12011;47.422;15.018;2023-04-03T04:09:01;2.40;64.60
23669;DHT22;12011;47.422;15.018;2023-04-03T04:11:33;2.50;69.00
23669;DHT22;12011;47.422;15.018;2023-04-03T04:14:06;2.50;66.30
23669;DHT22;12011;47.422;15.018;2023-04-03T04:16:41;2.50;64.50
23669;DHT22;12011;47.422;15.018;2023-04-03T04:19:20;2.50;66.40
23669;DHT22;12011;47.422;15.018;2023-04-03T04:22:02;2.50;69.80
23669;DHT22;12011;47.422;15.018;2023-04-03T04:24:37;2.50;69.50
23669;DHT22;12011;47.422;15.018;2023-04-03T04:27:08;2.60;67.60
23669;DHT22;12011;47.422;15.018;2023-04-03T04:29:44;2.60;63.20
23669;DHT22;12011;47.422;15.018;2023-04-03T04:32:18;2.70;64.70
23669;DHT22;12011;47.422;15.018;2023-04-03T04:34:52;2.70;62.20
23669;DHT22;12011;47.422;15.018;2023-04-03T04:37:27;2.60;69.30
23669;DHT22;12011;47.422;15.018;2023-04-03T04:40:11;2.60;70.70
23669;DHT22;12011;47.422;15.018;2023-04-03T04:42:59;2.70;66.70
23669;DHT22;12011;47.422;15.018;2023-04-03T04:45:38;2.60;66.60
23669;DHT22;12011;47.422;15.018;2023-04-03T04:48:15;2.60;69.20
23669;DHT22;12011;47.422;15.018;2023-04-03T04:50:53;2.60;69.10
23669;DHT22;12011;47.422;15.018;2023-04-03T04:53:34;2.60;68.30
23669;DHT22;12011;47.422;15.018;2023-04-03T04:56:09;2.60;69.70
23669;DHT22;12011;47.422;15.018;2023-04-03T04:58:48;2.60;74.10
23669;DHT22;12011;47.422;15.018;2023-04-03T05:01:21;2.60;70.50
23669;DHT22;12011;47.422;15.018;2023-04-03T05:04:02;2.60;74.10
23669;DHT22;12011;47.422;15.018;2023-04-03T05:06:35;2.70;71.50
23669;DHT22;12011;47.422;15.018;2023-04-03T05:09:14;2.60;74.10
23669;DHT22;12011;47.422;15.018;2023-04-03T05:11:55;2.60;73.40
23669;DHT22;12011;47.422;15.018;2023-04-03T05:14:27;2.60;73.40
23669;DHT22;12011;47.422;15.018;2023-04-03T05:17:01;2.60;72.00
23669;DHT22;12011;47.422;15.018;2023-04-03T05:19:34;2.60;68.40
23669;DHT22;12011;47.422;15.018;2023-04-03T05:22:05;2.70;71.60
23669;DHT22;12011;47.422;15.018;2023-04-03T05:24:35;2.70;73.20
23669;DHT22;12011;47.422;15.018;2023-04-03T05:27:08;2.70;77.80
23669;DHT22;12011;47.422;15.018;2023-04-03T05:29:42;2.70;72.30
23669;DHT22;12011;47.422;15.018;2023-04-03T05:32:17;2.70;72.10
23669;DHT22;12011;47.422;15.018;2023-04-03T05:34:51;2.70;71.50
23669;DHT22;12011;47.422;15.018;2023-04-03T05:37:21;2.70;71.70
23669;DHT22;12011;47.422;15.018;2023-04-03T05:39:52;2.70;75.60
23669;DHT22;12011;47.422;15.018;2023-04-03T05:42:25;2.80;71.40
23669;DHT22;12011;47.422;15.018;2023-04-03T05:44:55;2.80;77.80
23669;DHT22;12011;47.422;15.018;2023-04-03T05:47:27;2.70;85.40
23669;DHT22;12011;47.422;15.018;2023-04-03T05:49:57;2.80;71.70
23669;DHT22;12011;47.422;15.018;2023-04-03T05:52:28;2.80;74.90
23669;DHT22;12011;47.422;15.018;2023-04-03T05:55:00;2.80;74.50
23669;DHT22;12011;47.422;15.018;2023-04-03T05:57:35;2.80;78.80
23669;DHT22;12011;47.422;15.018;2023-04-03T06:00:11;2.80;83.80
23669;DHT22;12011;47.422;15.018;2023-04-03T06:02:49;2.80;80.30
23669;DHT22;12011;47.422;15.018;2023-04-03T06:05:23;2.70;77.60
23669;DHT22;12011;47.422;15.018;2023-04-03T06:07:53;2.70;84.10
23669;DHT22;12011;47.422;15.018;2023-04-03T06:10:23;2.70;82.10
23669;DHT22;12011;47.422;15.018;2023-04-03T06:12:55;2.70;80.10
23669;DHT22;12011;47.422;15.018;2023-04-03T06:15:24;2.80;79.60
23669;DHT22;12011;47.422;15.018;2023-04-03T06:17:54;2.80;86.30
23669;DHT22;12011;47.422;15.018;2023-04-03T06:20:24;2.90;82.50
23669;DHT22;12011;47.422;15.018;2023-04-03T06:22:53;2.90;82.50
23669;DHT22;12011;47.422;15.018;2023-04-03T06:25:23;3.00;80.80
23669;DHT22;12011;47.422;15.018;2023-04-03T06:27:55;3.10;83.90
23669;DHT22;12011;47.422;15.018;2023-04-03T06:30:24;3.10;76.80
23669;DHT22;12011;47.422;15.018;2023-04-03T06:32:54;3.10;85.90
23669;DHT22;12011;47.422;15.018;2023-04-03T06:35:25;3.20;80.80
23669;DHT22;12011;47.422;15.018;2023-04-03T06:37:56;3.20;81.10
23669;DHT22;12011;47.422;15.018;2023-04-03T06:40:26;3.20;82.80
23669;DHT22;12011;47.422;15.018;2023-04-03T06:42:58;3.10;83.40
23669;DHT22;12011;47.422;15.018;2023-04-03T06:45:27;3.10;85.90
23669;DHT22;12011;47.422;15.018;2023-04-03T06:47:57;3.20;85.30
23669;DHT22;12011;47.422;15.018;2023-04-03T06:50:27;3.70;86.10
23669;DHT22;12011;47.422;15.018;2023-04-03T06:52:57;3.60;84.60
23669;DHT22;12011;47.422;15.018;2023-04-03T06:55:27;3.60;83.00
23669;DHT22;12011;47.422;15.018;2023-04-03T06:57:59;4.50;82.60
23669;DHT22;12011;47.422;15.018;2023-04-03T07:00:29;4.70;73.60
23669;DHT22;12011;47.422;15.018;2023-04-03T07:02:59;5.20;69.60
23669;DHT22;12011;47.422;15.018;2023-04-03T07:05:29;5.20;71.50
23669;DHT22;12011;47.422;15.018;2023-04-03T07:07:59;4.90;67.60
23669;DHT22;12011;47.422;15.018;2023-04-03T07:10:28;4.90;72.90
23669;DHT22;12011;47.422;15.018;2023-04-03T07:13:00;4.70;66.20
23669;DHT22;12011;47.422;15.018;2023-04-03T07:15:30;4.60;88.70
23669;DHT22;12011;47.422;15.018;2023-04-03T07:17:59;4.70;71.80
23669;DHT22;12011;47.422;15.018;2023-04-03T07:20:30;5.10;76.10
23669;DHT22;12011;47.422;15.018;2023-04-03T07:23:00;5.40;72.90
23669;DHT22;12011;47.422;15.018;2023-04-03T07:25:29;5.70;71.10
23669;DHT22;12011;47.422;15.018;2023-04-03T07:28:03;5.70;67.60
23669;DHT22;12011;47.422;15.018;2023-04-03T07:30:34;5.60;70.50
23669;DHT22;12011;47.422;15.018;2023-04-03T07:33:03;5.90;60.10
23669;DHT22;12011;47.422;15.018;2023-04-03T07:35:33;6.10;65.30
23669;DHT22;12011;47.422;15.018;2023-04-03T07:38:02;7.20;60.10
23669;DHT22;12011;47.422;15.018;2023-04-03T07:40:32;8.50;53.70
23669;DHT22;12011;47.422;15.018;2023-04-03T07:43:05;8.40;50.30
23669;DHT22;12011;47.422;15.018;2023-04-03T07:45:35;8.20;50.70
23669;DHT22;12011;47.422;15.018;2023-04-03T07:48:05;7.40;48.00
23669;DHT22;12011;47.422;15.018;2023-04-03T07:50:35;6.70;52.00
23669;DHT22;12011;47.422;15.018;2023-04-03T07:53:05;6.00;58.10
23669;DHT22;12011;47.422;15.018;2023-04-03T07:55:35;6.00;56.60
23669;DHT22;12011;47.422;15.018;2023-04-03T07:58:14;6.40;56.30
23669;DHT22;12011;47.422;15.018;2023-04-03T08:00:45;6.50;54.30
23669;DHT22;12011;47.422;15.018;2023-04-03T08:03:15;6.20;52.20
23669;DHT22;12011;47.422;15.018;2023-04-03T08:05:47;6.10;50.30
23669;DHT22;12011;47.422;15.018;2023-04-03T08:08:19;6.20;50.00
23669;DHT22;12011;47.422;15.018;2023-04-03T08:10:51;6.70;51.40
23669;DHT22;12011;47.422;15.018;2023-04-03T08:13:24;6.60;49.60
23669;DHT22;12011;47.422;15.018;2023-04-03T08:15:54;6.60;48.80
23669;DHT22;12011;47.422;15.018;2023-04-03T08:18:25;6.60;48.80
23669;DHT22;12011;47.422;15.018;2023-04-03T08:20:54;6.90;48.90
23669;DHT22;12011;47.422;15.018;2023-04-03T08:23:24;7.20;47.40
23669;DHT22;12011;47.422;15.018;2023-04-03T08:25:53;7.50;48.70
23669;DHT22;12011;47.422;15.018;2023-04-03T08:28:25;7.80;50.20
23669;DHT22;12011;47.422;15.018;2023-04-03T08:30:55;8.40;48.50
23669;DHT22;12011;47.422;15.018;2023-04-03T08:33:24;8.00;45.40
23669;DHT22;12011;47.422;15.018;2023-04-03T08:35:54;8.30;49.20
23669;DHT22;12011;47.422;15.018;2023-04-03T08:38:25;8.70;49.00
23669;DHT22;12011;47.422;15.018;2023-04-03T08:41:06;9.40;48.70
23669;DHT22;12011;47.422;15.018;2023-04-03T08:43:58;10.00;44.80
23669;DHT22;12011;47.422;15.018;2023-04-03T08:46:43;11.00;42.00
23669;DHT22;12011;47.422;15.018;2023-04-03T08:49:30;11.60;35.70
23669;DHT22;12011;47.422;15.018;2023-04-03T08:52:05;12.30;41.00
23669;DHT22;12011;47.422;15.018;2023-04-03T08:54:49;11.90;36.50
23669;DHT22;12011;47.422;15.018;2023-04-03T08:57:28;11.70;34.20
23669;DHT22;12011;47.422;15.018;2023-04-03T09:00:05;12.10;36.00
23669;DHT22;12011;47.422;15.018;2023-04-03T09:02:42;12.70;37.30
23669;DHT22;12011;47.422;15.018;2023-04-03T09:05:15;12.80;32.20
23669;DHT22;12011;47.422;15.018;2023-04-03T09:07:51;11.40;33.50
23669;DHT22;12011;47.422;15.018;2023-04-03T09:10:29;11.30;32.60
23669;DHT22;12011;47.422;15.018;2023-04-03T09:13:08;11.00;37.00
23669;DHT22;12011;47.422;15.018;2023-04-03T09:15:44;10.20;35.70
23669;DHT22;12011;47.422;15.018;2023-04-03T09:18:19;10.40;38.30
23669;DHT22;12011;47.422;15.018;2023-04-03T09:20:57;10.10;33.80
23669;DHT22;12011;47.422;15.018;2023-04-03T09:23:36;10.20;35.90
23669;DHT22;12011;47.422;15.018;2023-04-03T09:26:16;10.10;35.70
23669;DHT22;12011;47.422;15.018;2023-04-03T09:28:47;9.90;35.60
23669;DHT22;12011;47.422;15.018;2023-04-03T09:31:26;8.80;35.00
23669;DHT22;12011;47.422;15.018;2023-04-03T09:34:03;8.60;38.50
23669;DHT22;12011;47.422;15.018;2023-04-03T09:36:38;8.90;37.50
23669;DHT22;12011;47.422;15.018;2023-04-03T09:39:13;8.80;39.10
23669;DHT22;12011;47.422;15.018;2023-04-03T09:41:56;9.20;40.80
23669;DHT22;12011;47.422;15.018;2023-04-03T09:44:31;10.90;36.60
23669;DHT22;12011;47.422;15.018;2023-04-03T09:47:18;9.90;34.60
23669;DHT22;12011;47.422;15.018;2023-04-03T09:50:15;10.30;37.10
23669;DHT22;12011;47.422;15.018;2023-04-03T09:52:50;9.50;34.70
23669;DHT22;12011;47.422;15.018;2023-04-03T09:55:25;8.70;36.80
23669;DHT22;12011;47.422;15.018;2023-04-03T09:57:58;8.20;37.10
23669;DHT22;12011;47.422;15.018;2023-04-03T10:00:34;8.20;38.80
23669;DHT22;12011;47.422;15.018;2023-04-03T10:03:25;8.20;40.00
23669;DHT22;12011;47.422;15.018;2023-04-03T10:05:58;8.00;39.50
23669;DHT22;12011;47.422;15.018;2023-04-03T10:08:30;7.40;39.40
23669;DHT22;12011;47.422;15.018;2023-04-03T10:11:12;7.50;42.30
23669;DHT22;12011;47.422;15.018;2023-04-03T10:13:56;7.10;39.30
23669;DHT22;12011;47.422;15.018;2023-04-03T10:16:40;7.20;41.60
23669;DHT22;12011;47.422;15.018;2023-04-03T10:19:34;7.40;41.60
23669;DHT22;12011;47.422;15.018;2023-04-03T10:22:18;8.50;42.90
23669;DHT22;12011;47.422;15.018;2023-04-03T10:24:56;8.20;39.80
23669;DHT22;12011;47.422;15.018;2023-04-03T10:27:45;8.30;42.10
23669;DHT22;12011;47.422;15.018;2023-04-03T10:30:36;8.30;43.50
23669;DHT22;12011;47.422;15.018;2023-04-03T10:33:35;8.50;43.90
23669;DHT22;12011;47.422;15.018;2023-04-03T10:39:46;9.00;42.00
23669;DHT22;12011;47.422;15.018;2023-04-03T10:42:33;9.10;45.70
23669;DHT22;12011;47.422;15.018;2023-04-03T10:45:21;9.10;44.40
23669;DHT22;12011;47.422;15.018;2023-04-03T10:48:07;9.20;44.40
23669;DHT22;12011;47.422;15.018;2023-04-03T10:50:55;9.30;41.50
23669;DHT22;12011;47.422;15.018;2023-04-03T10:53:41;9.20;39.20
23669;DHT22;12011;47.422;15.018;2023-04-03T10:56:28;9.20;42.00
23669;DHT22;12011;47.422;15.018;2023-04-03T10:59:19;8.70;44.00
23669;DHT22;12011;47.422;15.018;2023-04-03T11:01:58;9.00;44.70
23669;DHT22;12011;47.422;15.018;2023-04-03T11:04:36;8.30;45.20
23669;DHT22;12011;47.422;15.018;2023-04-03T11:07:24;7.80;46.60
23669;DHT22;12011;47.422;15.018;2023-04-03T11:10:12;8.00;44.80
23669;DHT22;12011;47.422;15.018;2023-04-03T11:12:52;8.90;48.30
23669;DHT22;12011;47.422;15.018;2023-04-03T11:15:31;8.80;44.30
23669;DHT22;12011;47.422;15.018;2023-04-03T11:18:17;9.30;48.40
23669;DHT22;12011;47.422;15.018;2023-04-03T11:21:02;8.40;44.40
23669;DHT22;12011;47.422;15.018;2023-04-03T11:23:36;7.90;49.10
23669;DHT22;12011;47.422;15.018;2023-04-03T11:26:18;7.50;48.70
23669;DHT22;12011;47.422;15.018;2023-04-03T11:29:01;7.10;50.20
23669;DHT22;12011;47.422;15.018;2023-04-03T11:31:55;6.60;50.00
23669;DHT22;12011;47.422;15.018;2023-04-03T11:34:40;6.50;51.50
23669;DHT22;12011;47.422;15.018;2023-04-03T11:37:23;6.80;51.90
23669;DHT22;12011;47.422;15.018;2023-04-03T11:40:00;7.20;49.80
23669;DHT22;12011;47.422;15.018;2023-04-03T11:42:51;7.40;50.00
23669;DHT22;12011;47.422;15.018;2023-04-03T11:45:36;7.30;47.30
23669;DHT22;12011;47.422;15.018;2023-04-03T11:51:41;7.20;47.70
23669;DHT22;12011;47.422;15.018;2023-04-03T11:58:09;8.10;46.30
23669;DHT22;12011;47.422;15.018;2023-04-03T12:00:59;8.20;45.10
23669;DHT22;12011;47.422;15.018;2023-04-03T12:10:16;7.40;47.40
23669;DHT22;12011;47.422;15.018;2023-04-03T12:12:58;7.30;52.50
23669;DHT22;12011;47.422;15.018;2023-04-03T12:15:53;7.30;46.50
23669;DHT22;12011;47.422;15.018;2023-04-03T12:18:57;6.90;48.20
23669;DHT22;12011;47.422;15.018;2023-04-03T12:24:37;7.30;53.00
23669;DHT22;12011;47.422;15.018;2023-04-03T12:27:23;7.70;50.00
23669;DHT22;12011;47.422;15.018;2023-04-03T12:30:18;8.20;52.40
23669;DHT22;12011;47.422;15.018;2023-04-03T12:33:26;8.30;46.70
23669;DHT22;12011;47.422;15.018;2023-04-03T12:36:08;8.00;47.90
23669;DHT22;12011;47.422;15.018;2023-04-03T12:39:01;7.60;46.80
23669;DHT22;12011;47.422;15.018;2023-04-03T12:41:42;7.40;51.60
23669;DHT22;12011;47.422;15.018;2023-04-03T12:44:30;8.20;52.10
23669;DHT22;12011;47.422;15.018;2023-04-03T12:47:26;8.20;50.80
23669;DHT22;12011;47.422;15.018;2023-04-03T12:50:03;7.60;51.60
23669;DHT22;12011;47.422;15.018;2023-04-03T12:52:47;7.30;53.10
23669;DHT22;12011;47.422;15.018;2023-04-03T12:55:21;7.70;63.40
23669;DHT22;12011;47.422;15.018;2023-04-03T12:57:50;8.20;70.00
23669;DHT22;12011;47.422;15.018;2023-04-03T13:00:30;8.50;57.30
23669;DHT22;12011;47.422;15.018;2023-04-03T13:03:03;8.80;60.50
23669;DHT22;12011;47.422;15.018;2023-04-03T13:05:36;9.20;52.10
23669;DHT22;12011;47.422;15.018;2023-04-03T13:08:12;9.10;45.30
23669;DHT22;12011;47.422;15.018;2023-04-03T13:10:53;9.20;51.50
23669;DHT22;12011;47.422;15.018;2023-04-03T13:13:25;9.30;46.20
23669;DHT22;12011;47.422;15.018;2023-04-03T13:15:55;8.80;48.90
23669;DHT22;12011;47.422;15.018;2023-04-03T13:18:28;8.30;48.00
23669;DHT22;12011;47.422;15.018;2023-04-03T13:21:04;8.30;46.50
23669;DHT22;12011;47.422;15.018;2023-04-03T13:23:39;8.00;46.00
23669;DHT22;12011;47.422;15.018;2023-04-03T13:26:11;8.00;47.00
23669;DHT22;12011;47.422;15.018;2023-04-03T13:28:43;8.50;46.60
23669;DHT22;12011;47.422;15.018;2023-04-03T13:31:22;8.80;46.30
23669;DHT22;12011;47.422;15.018;2023-04-03T13:33:57;8.70;45.50
23669;DHT22;12011;47.422;15.018;2023-04-03T13:36:36;8.90;44.70
23669;DHT22;12011;47.422;15.018;2023-04-03T13:39:21;9.10;46.20
23669;DHT22;12011;47.422;15.018;2023-04-03T13:41:55;9.70;44.80
23669;DHT22;12011;47.422;15.018;2023-04-03T13:44:32;9.30;44.70
23669;DHT22;12011;47.422;15.018;2023-04-03T13:47:17;8.80;45.80
23669;DHT22;12011;47.422;15.018;2023-04-03T13:50:01;7.90;48.60
23669;DHT22;12011;47.422;15.018;2023-04-03T13:52:42;7.50;51.60
23669;DHT22;12011;47.422;15.018;2023-04-03T13:55:21;7.40;50.20
23669;DHT22;12011;47.422;15.018;2023-04-03T13:57:55;6.80;48.00
23669;DHT22;12011;47.422;15.018;2023-04-03T14:00:31;6.30;58.10
23669;DHT22;12011;47.422;15.018;2023-04-03T14:03:13;5.70;64.00
23669;DHT22;12011;47.422;15.018;2023-04-03T14:05:43;5.60;62.00
23669;DHT22;12011;47.422;15.018;2023-04-03T14:08:16;5.10;60.00
23669;DHT22;12011;47.422;15.018;2023-04-03T14:10:46;5.40;57.10
23669;DHT22;12011;47.422;15.018;2023-04-03T14:13:19;5.40;56.60
23669;DHT22;12011;47.422;15.018;2023-04-03T14:15:49;5.50;49.30
23669;DHT22;12011;47.422;15.018;2023-04-03T14:18:20;5.20;54.00
23669;DHT22;12011;47.422;15.018;2023-04-03T14:20:50;5.40;52.80
23669;DHT22;12011;47.422;15.018;2023-04-03T14:23:22;5.40;51.60
23669;DHT22;12011;47.422;15.018;2023-04-03T14:25:51;5.40;50.00
23669;DHT22;12011;47.422;15.018;2023-04-03T14:28:21;5.60;53.20
23669;DHT22;12011;47.422;15.018;2023-04-03T14:30:51;5.80;51.70
23669;DHT22;12011;47.422;15.018;2023-04-03T14:33:22;5.80;52.70
23669;DHT22;12011;47.422;15.018;2023-04-03T14:35:54;5.70;51.00
23669;DHT22;12011;47.422;15.018;2023-04-03T14:38:29;5.10;53.20
23669;DHT22;12011;47.422;15.018;2023-04-03T14:40:59;4.90;53.20
23669;DHT22;12011;47.422;15.018;2023-04-03T14:43:28;4.80;56.00
23669;DHT22;12011;47.422;15.018;2023-04-03T14:45:58;4.80;56.00
23669;DHT22;12011;47.422;15.018;2023-04-03T14:48:29;4.70;57.10
23669;DHT22;12011;47.422;15.018;2023-04-03T14:51:00;4.60;55.60
23669;DHT22;12011;47.422;15.018;2023-04-03T14:53:32;4.80;56.10
23669;DHT22;12011;47.422;15.018;2023-04-03T14:56:09;4.80;53.80
23669;DHT22;12011;47.422;15.018;2023-04-03T14:58:40;4.20;61.70
23669;DHT22;12011;47.422;15.018;2023-04-03T15:01:10;4.20;60.10
23669;DHT22;12011;47.422;15.018;2023-04-03T15:03:40;4.20;59.80
23669;DHT22;12011;47.422;15.018;2023-04-03T15:06:13;4.40;59.10
23669;DHT22;12011;47.422;15.018;2023-04-03T15:08:46;4.30;59.20
23669;DHT22;12011;47.422;15.018;2023-04-03T15:11:16;4.40;58.10
23669;DHT22;12011;47.422;15.018;2023-04-03T15:13:47;4.10;58.30
23669;DHT22;12011;47.422;15.018;2023-04-03T15:16:18;4.20;61.50
23669;DHT22;12011;47.422;15.018;2023-04-03T15:18:48;4.10;61.90
23669;DHT22;12011;47.422;15.018;2023-04-03T15:21:18;3.90;67.00
23669;DHT22;12011;47.422;15.018;2023-04-03T15:23:50;4.00;70.20
23669;DHT22;12011;47.422;15.018;2023-04-03T15:26:20;4.00;64.50
23669;DHT22;12011;47.422;15.018;2023-04-03T15:28:49;3.90;61.70
23669;DHT22;12011;47.422;15.018;2023-04-03T15:31:19;3.70;59.10
23669;DHT22;12011;47.422;15.018;2023-04-03T15:33:48;3.70;58.60
23669;DHT22;12011;47.422;15.018;2023-04-03T15:36:18;3.70;54.50
23669;DHT22;12011;47.422;15.018;2023-04-03T15:38:50;3.70;61.00
23669;DHT22;12011;47.422;15.018;2023-04-03T15:41:19;3.70;52.50
23669;DHT22;12011;47.422;15.018;2023-04-03T15:43:49;3.80;51.40
23669;DHT22;12011;47.422;15.018;2023-04-03T15:46:18;3.80;53.40
23669;DHT22;12011;47.422;15.018;2023-04-03T15:48:48;3.70;52.60
23669;DHT22;12011;47.422;15.018;2023-04-03T15:51:17;3.80;52.20
23669;DHT22;12011;47.422;15.018;2023-04-03T15:53:50;3.80;54.50
23669;DHT22;12011;47.422;15.018;2023-04-03T15:56:19;3.80;53.70
23669;DHT22;12011;47.422;15.018;2023-04-03T15:58:49;3.90;54.60
23669;DHT22;12011;47.422;15.018;2023-04-03T16:01:18;3.80;54.60
23669;DHT22;12011;47.422;15.018;2023-04-03T16:03:48;3.70;53.00
23669;DHT22;12011;47.422;15.018;2023-04-03T16:06:19;3.50;59.60
23669;DHT22;12011;47.422;15.018;2023-04-03T16:08:51;3.20;62.20
23669;DHT22;12011;47.422;15.018;2023-04-03T16:11:24;3.00;69.70
23669;DHT22;12011;47.422;15.018;2023-04-03T16:13:54;2.90;66.40
23669;DHT22;12011;47.422;15.018;2023-04-03T16:16:24;2.80;67.30
23669;DHT22;12011;47.422;15.018;2023-04-03T16:18:55;2.70;63.20
23669;DHT22;12011;47.422;15.018;2023-04-03T16:21:27;2.60;63.30
23669;DHT22;12011;47.422;15.018;2023-04-03T16:24:01;2.50;66.40
23669;DHT22;12011;47.422;15.018;2023-04-03T16:26:30;2.60;72.20
23669;DHT22;12011;47.422;15.018;2023-04-03T16:29:00;2.70;68.30
23669;DHT22;12011;47.422;15.018;2023-04-03T16:31:32;2.60;65.60
23669;DHT22;12011;47.422;15.018;2023-04-03T16:34:02;2.50;74.80
23669;DHT22;12011;47.422;15.018;2023-04-03T16:36:32;2.30;67.60
23669;DHT22;12011;47.422;15.018;2023-04-03T16:39:06;2.40;68.30
23669;DHT22;12011;47.422;15.018;2023-04-03T16:41:35;2.10;71.70
23669;DHT22;12011;47.422;15.018;2023-04-03T16:44:06;2.30;69.30
23669;DHT22;12011;47.422;15.018;2023-04-03T16:46:35;2.20;66.70
23669;DHT22;12011;47.422;15.018;2023-04-03T16:49:05;2.10;66.10